Dungeness, Washington
Current Conditions -  °F | °C
As of 1:53 AM on Saturday 29 Nov 2014 (Local Time) from KCLM Reporting Station
Light Snow Light Snow  
Wind Chill: 30°   Ceiling: 4000
Heat Index: 34°   Visibility: 9mi
Dew Point: 31°   Wind: 5mph
Humidity: 89%   Direction: NA
Pressure: 29.56"   Gusts: NA
Location:  48.0015°N, 123.09°W
Report Text: KCLM 290953Z AUTO VRB04KT 9SM -SN OVC040 01/M01 A2956 RMK AO2 SLP010 P0000 T00111006 $
Loading
Personal Weather Stations






























Interactive Weather Map New forecast layout! Learn more

10-Day Weather Forecast

Advertisements
Track Severe Weather on mobile